createdAt,value
2022-11-16T00:02:44.237Z,7.634888
2022-11-16T00:06:09.476Z,7.634888
2022-11-16T00:09:34.734Z,7.524109
2022-11-16T00:12:59.999Z,7.493896
2022-11-16T00:16:25.196Z,7.493896
2022-11-16T00:19:50.432Z,7.554321
2022-11-16T00:23:15.649Z,7.634888
2022-11-16T00:26:40.870Z,7.634888
2022-11-16T00:30:06.122Z,7.574463
2022-11-16T00:33:31.332Z,7.554321
2022-11-16T00:36:56.550Z,7.503967
2022-11-16T00:40:21.788Z,7.493896
2022-11-16T00:43:47.047Z,7.574463
2022-11-16T00:47:12.290Z,7.644958
2022-11-16T00:50:37.474Z,7.6651
2022-11-16T00:54:02.773Z,7.705383
2022-11-16T00:57:28.020Z,7.705383
2022-11-16T01:00:53.298Z,7.705383
2022-11-16T01:04:18.464Z,7.705383
2022-11-16T01:07:43.682Z,7.705383
2022-11-16T01:11:08.898Z,7.614746
2022-11-16T01:14:34.121Z,7.614746
2022-11-16T01:17:59.346Z,7.604675
2022-11-16T01:21:24.602Z,7.614746
2022-11-16T01:24:49.820Z,7.604675
2022-11-16T01:28:15.044Z,7.574463
2022-11-16T01:31:40.266Z,7.554321
2022-11-16T01:35:05.512Z,7.483826
2022-11-16T01:38:31.090Z,7.483826
2022-11-16T01:41:55.964Z,7.493896
2022-11-16T01:45:21.203Z,7.433472
2022-11-16T01:48:46.489Z,7.393188
2022-11-16T01:52:11.641Z,7.423401
2022-11-16T01:55:36.906Z,7.433472
2022-11-16T01:59:02.116Z,7.423401
2022-11-16T02:02:27.349Z,7.352905
2022-11-16T02:05:52.581Z,7.373047
2022-11-16T02:09:17.819Z,7.423401
2022-11-16T02:12:43.057Z,7.423401
2022-11-16T02:16:08.290Z,7.403259
2022-11-16T02:19:33.528Z,7.252197
2022-11-16T02:22:58.747Z,7.242126
2022-11-16T02:26:23.986Z,7.232056
2022-11-16T02:29:49.256Z,7.151489
2022-11-16T02:33:14.470Z,7.201843
2022-11-16T02:36:39.765Z,7.201843
2022-11-16T02:40:04.990Z,7.16156
2022-11-16T02:43:30.232Z,7.211914
2022-11-16T02:46:55.470Z,7.232056
2022-11-16T02:50:20.660Z,7.252197
2022-11-16T02:53:45.891Z,7.252197
2022-11-16T02:57:11.110Z,7.16156
2022-11-16T03:00:36.388Z,7.121277
2022-11-16T03:04:01.617Z,7.091064
2022-11-16T03:07:26.786Z,7.050781
2022-11-16T03:10:52.009Z,6.970215
2022-11-16T03:14:17.232Z,6.849365
2022-11-16T03:17:42.453Z,6.738586
2022-11-16T03:21:07.691Z,6.738586
2022-11-16T03:24:32.899Z,6.738586
2022-11-16T03:27:58.122Z,6.839294
2022-11-16T03:31:23.348Z,6.889648
2022-11-16T03:34:48.587Z,6.849365
2022-11-16T03:38:13.825Z,6.849365
2022-11-16T03:41:39.038Z,6.90979
2022-11-16T03:45:04.275Z,6.950073
2022-11-16T03:48:29.516Z,6.990356
2022-11-16T03:51:54.744Z,7.070923
2022-11-16T03:55:20.017Z,7.020569
2022-11-16T03:58:45.207Z,7.050781
2022-11-16T04:02:10.428Z,6.970215
2022-11-16T04:05:35.642Z,6.940002
2022-11-16T04:09:00.870Z,6.869507
2022-11-16T04:12:26.105Z,6.839294
2022-11-16T04:15:51.289Z,6.799011
2022-11-16T04:19:16.486Z,6.879578
2022-11-16T04:22:41.698Z,6.90979
2022-11-16T04:26:06.921Z,6.869507
2022-11-16T04:29:32.155Z,6.849365
2022-11-16T04:32:57.329Z,6.849365
2022-11-16T04:36:22.543Z,6.799011
2022-11-16T04:39:47.799Z,6.839294
2022-11-16T04:43:12.995Z,6.839294
2022-11-16T04:46:38.235Z,6.889648
2022-11-16T04:50:03.437Z,6.889648
2022-11-16T04:53:28.652Z,6.869507
2022-11-16T04:56:53.896Z,6.90979
2022-11-16T05:00:19.152Z,6.950073
2022-11-16T05:03:44.395Z,6.889648
2022-11-16T05:07:09.612Z,6.839294
2022-11-16T05:10:34.805Z,6.869507
2022-11-16T05:14:00.002Z,6.869507
2022-11-16T05:17:25.210Z,6.849365
2022-11-16T05:20:50.457Z,6.879578
2022-11-16T05:24:15.628Z,6.90979
2022-11-16T05:27:40.833Z,6.940002
2022-11-16T05:31:06.083Z,6.980286
2022-11-16T05:34:31.279Z,7.060852
2022-11-16T05:37:56.579Z,7.171631
2022-11-16T05:41:21.732Z,7.232056
2022-11-16T05:44:46.936Z,7.28241
2022-11-16T05:48:12.158Z,7.352905
2022-11-16T05:51:37.378Z,7.322693
2022-11-16T05:55:02.610Z,7.393188
2022-11-16T05:58:27.810Z,7.352905
2022-11-16T06:01:53.017Z,7.322693
2022-11-16T06:05:18.265Z,7.272339
2022-11-16T06:08:43.464Z,7.16156
2022-11-16T06:12:08.729Z,7.03064
2022-11-16T06:15:34.022Z,6.940002
2022-11-16T06:18:59.557Z,6.919861
2022-11-16T06:22:24.444Z,6.970215
2022-11-16T06:25:49.660Z,6.950073
2022-11-16T06:29:14.867Z,7.020569
2022-11-16T06:32:40.054Z,6.980286
2022-11-16T06:36:05.545Z,6.990356
2022-11-16T06:39:30.463Z,7.070923
2022-11-16T06:42:55.672Z,7.020569
2022-11-16T06:46:20.883Z,7.131348
2022-11-16T06:49:46.091Z,7.211914
2022-11-16T06:53:11.628Z,7.342834
2022-11-16T06:56:36.503Z,7.433472
2022-11-16T07:00:01.720Z,7.554321
2022-11-16T07:03:26.924Z,7.6651
2022-11-16T07:06:52.194Z,7.765808
2022-11-16T07:10:17.663Z,7.856445
2022-11-16T07:13:42.575Z,7.846375
2022-11-16T07:17:09.597Z,7.91687
2022-11-16T07:20:32.989Z,7.886658
2022-11-16T07:23:58.202Z,7.896729
2022-11-16T07:27:23.687Z,7.826233
2022-11-16T07:30:48.641Z,7.846375
2022-11-16T07:34:13.841Z,7.745667
2022-11-16T07:37:39.057Z,7.53418
2022-11-16T07:41:04.267Z,7.352905
2022-11-16T07:44:29.480Z,7.252197
2022-11-16T07:47:54.666Z,7.151489
2022-11-16T07:51:19.870Z,7.060852
2022-11-16T07:54:45.065Z,7.050781
2022-11-16T07:58:10.265Z,7.151489
2022-11-16T08:01:35.722Z,7.242126
2022-11-16T08:05:00.639Z,7.302551
2022-11-16T08:08:25.888Z,7.352905
2022-11-16T08:11:51.091Z,7.201843
2022-11-16T08:15:16.280Z,7.16156
2022-11-16T08:18:41.604Z,7.121277
2022-11-16T08:22:06.680Z,7.201843
2022-11-16T08:25:31.881Z,7.302551
2022-11-16T08:28:57.091Z,7.342834
2022-11-16T08:32:22.301Z,7.423401
2022-11-16T08:35:47.614Z,7.433472
2022-11-16T08:39:12.705Z,7.433472
2022-11-16T08:42:42.359Z,7.574463
2022-11-16T08:46:03.180Z,7.705383
2022-11-16T08:49:28.342Z,7.816162
2022-11-16T08:52:53.677Z,7.856445
2022-11-16T08:56:18.908Z,7.91687
2022-11-16T08:59:43.988Z,7.977295
2022-11-16T09:03:09.232Z,8.078003
2022-11-16T09:06:34.450Z,8.158569
2022-11-16T09:09:59.768Z,8.078003
2022-11-16T09:13:24.868Z,7.947083
2022-11-16T09:16:50.103Z,7.967224
2022-11-16T09:20:15.310Z,7.856445
2022-11-16T09:23:40.509Z,7.866516
2022-11-16T09:27:05.766Z,7.926941
2022-11-16T09:30:30.938Z,7.91687
2022-11-16T09:33:56.173Z,7.846375
2022-11-16T09:37:21.374Z,7.826233
2022-11-16T09:40:46.563Z,7.886658
2022-11-16T09:44:11.795Z,7.886658
2022-11-16T09:47:36.975Z,7.947083
2022-11-16T09:51:02.247Z,7.886658
2022-11-16T09:54:27.473Z,7.796021
2022-11-16T09:57:52.682Z,7.675171
2022-11-16T10:01:18.063Z,7.675171
2022-11-16T10:04:43.093Z,7.705383
2022-11-16T10:08:08.306Z,7.675171
2022-11-16T10:11:33.514Z,7.554321
2022-11-16T10:14:58.732Z,7.524109
2022-11-16T10:18:24.009Z,7.503967
2022-11-16T10:21:49.153Z,7.584534
2022-11-16T10:25:14.397Z,7.675171
2022-11-16T10:28:39.589Z,7.705383
2022-11-16T10:32:04.773Z,7.816162
2022-11-16T10:35:30.012Z,7.866516
2022-11-16T10:38:55.206Z,7.926941
2022-11-16T10:42:20.401Z,7.947083
2022-11-16T10:45:45.625Z,7.967224
2022-11-16T10:49:10.825Z,7.91687
2022-11-16T10:52:36.046Z,7.886658
2022-11-16T10:56:01.226Z,7.856445
2022-11-16T10:59:26.434Z,7.866516
2022-11-16T11:02:51.648Z,7.856445
2022-11-16T11:06:16.867Z,7.796021
2022-11-16T11:09:42.205Z,7.896729
2022-11-16T11:13:07.292Z,7.846375
2022-11-16T11:16:32.493Z,7.896729
2022-11-16T11:19:57.702Z,7.846375
2022-11-16T11:23:22.924Z,7.796021
2022-11-16T11:26:48.138Z,7.705383
2022-11-16T11:30:13.334Z,7.634888
2022-11-16T11:33:38.550Z,7.614746
2022-11-16T11:37:03.742Z,7.614746
2022-11-16T11:40:28.957Z,7.715454
2022-11-16T11:43:54.296Z,7.816162
2022-11-16T11:47:50.752Z,7.78595
2022-11-16T11:50:44.577Z,7.796021
2022-11-16T11:54:09.789Z,7.816162
2022-11-16T11:57:34.980Z,7.816162
2022-11-16T12:01:00.316Z,7.846375
2022-11-16T12:04:25.423Z,7.796021
2022-11-16T12:07:50.633Z,7.796021
2022-11-16T12:11:15.828Z,7.866516
2022-11-16T12:14:41.053Z,7.886658
2022-11-16T12:18:06.382Z,7.886658
2022-11-16T12:21:31.465Z,7.856445
2022-11-16T12:24:56.679Z,7.896729
2022-11-16T12:28:21.882Z,7.856445
2022-11-16T12:31:47.082Z,7.715454
2022-11-16T12:35:12.402Z,7.685242
2022-11-16T12:38:38.690Z,7.735596
2022-11-16T12:42:03.865Z,7.735596
2022-11-16T12:45:32.377Z,7.796021
2022-11-16T12:48:54.345Z,7.796021
2022-11-16T12:52:19.735Z,7.765808
2022-11-16T12:55:45.071Z,7.78595
2022-11-16T12:59:10.324Z,7.846375
2022-11-16T13:02:35.616Z,7.886658
2022-11-16T13:06:00.899Z,7.886658
2022-11-16T13:09:26.333Z,7.826233
2022-11-16T13:12:55.684Z,7.78595
2022-11-16T13:16:16.813Z,7.705383
2022-11-16T13:19:42.073Z,7.614746
2022-11-16T13:23:07.377Z,7.604675
2022-11-16T13:26:32.785Z,7.6651
2022-11-16T13:29:57.945Z,7.705383
2022-11-16T13:33:23.364Z,7.765808
2022-11-16T13:36:48.639Z,7.826233
2022-11-16T13:40:13.910Z,7.796021
2022-11-16T13:43:39.348Z,7.846375
2022-11-16T13:47:04.817Z,7.977295
2022-11-16T13:50:33.090Z,8.007507
2022-11-16T13:57:20.353Z,8.098145
2022-11-16T14:00:45.763Z,8.108215
2022-11-16T14:04:10.983Z,8.067932
2022-11-16T14:07:36.270Z,8.007507
2022-11-16T14:11:01.567Z,7.926941
2022-11-16T14:14:26.828Z,7.947083
2022-11-16T14:17:52.234Z,8.007507
2022-11-16T14:21:17.408Z,8.078003
2022-11-16T14:24:42.742Z,8.158569
2022-11-16T14:28:08.038Z,8.078003
2022-11-16T15:05:00.179Z,7.675171
2022-11-16T15:08:25.418Z,7.634888
2022-11-16T15:11:50.636Z,7.503967
2022-11-16T15:15:15.875Z,7.433472
2022-11-16T15:18:41.203Z,7.342834
2022-11-16T15:22:06.605Z,7.252197
2022-11-16T15:25:31.847Z,7.232056
2022-11-16T15:28:57.145Z,7.211914
2022-11-16T15:32:22.475Z,7.151489
2022-11-16T15:35:47.728Z,7.131348
2022-11-16T15:39:13.057Z,7.121277
2022-11-16T15:42:38.298Z,7.060852
2022-11-16T15:46:03.610Z,7.020569
2022-11-16T15:49:28.910Z,6.980286
2022-11-16T15:52:54.218Z,7.03064
2022-11-16T15:56:19.508Z,6.90979
2022-11-16T15:59:44.779Z,6.809082
2022-11-16T16:03:10.074Z,6.839294
2022-11-16T16:06:35.342Z,6.869507
2022-11-16T16:10:00.648Z,6.809082
2022-11-16T16:13:26.065Z,6.839294
2022-11-16T16:16:51.258Z,6.799011
2022-11-16T16:20:16.511Z,6.889648
2022-11-16T16:23:41.799Z,6.980286
2022-11-16T16:27:07.043Z,6.950073
2022-11-16T16:30:32.353Z,6.980286
2022-11-16T16:33:57.608Z,7.03064
2022-11-16T16:37:22.867Z,7.070923
2022-11-16T16:40:48.137Z,7.101135
2022-11-16T16:44:13.415Z,7.16156
2022-11-16T16:47:38.797Z,7.201843
2022-11-16T16:51:03.937Z,7.252197
2022-11-16T16:54:29.264Z,7.302551
2022-11-16T16:57:54.569Z,7.342834
2022-11-16T17:01:19.879Z,7.433472
2022-11-16T17:04:45.248Z,7.524109
2022-11-16T17:08:10.385Z,7.503967
2022-11-16T17:11:35.659Z,7.53418
2022-11-16T17:15:00.976Z,7.604675
2022-11-16T17:18:26.260Z,7.604675
2022-11-16T17:21:51.596Z,7.574463
2022-11-16T17:25:16.840Z,7.483826
2022-11-16T17:28:42.115Z,7.453613
2022-11-16T17:32:07.419Z,7.433472
2022-11-16T17:35:32.709Z,7.483826
2022-11-16T17:38:58.045Z,7.463684
2022-11-16T17:42:23.273Z,7.433472
2022-11-16T17:45:48.585Z,7.302551
2022-11-16T17:49:13.884Z,7.322693
2022-11-16T17:52:39.163Z,7.352905
2022-11-16T17:56:04.488Z,7.312622
2022-11-16T17:59:30.209Z,7.242126
2022-11-16T18:02:55.083Z,7.171631
2022-11-16T18:06:20.351Z,7.201843
2022-11-16T18:09:45.647Z,7.232056
2022-11-16T18:13:11.048Z,7.151489
2022-11-16T18:16:36.198Z,7.16156
2022-11-16T18:20:01.488Z,7.091064
2022-11-16T18:23:26.815Z,7.101135
2022-11-16T18:26:52.081Z,7.050781
2022-11-16T18:30:17.410Z,6.950073
2022-11-16T18:33:42.666Z,7.03064
2022-11-16T18:37:07.970Z,7.03064
2022-11-16T18:40:33.228Z,7.060852
2022-11-16T18:43:58.596Z,7.050781
2022-11-16T18:47:23.991Z,6.970215
2022-11-16T18:50:49.164Z,6.90979
2022-11-16T18:54:19.307Z,6.90979
2022-11-16T18:57:45.186Z,6.90979
2022-11-16T19:01:10.866Z,6.980286
2022-11-16T19:04:37.271Z,6.970215
2022-11-16T19:08:02.546Z,6.869507
2022-11-16T19:11:27.845Z,6.809082
2022-11-16T19:14:53.120Z,6.90979
2022-11-16T19:18:22.097Z,7.050781
2022-11-16T19:21:43.674Z,7.151489
2022-11-16T19:25:08.772Z,7.232056
2022-11-16T19:28:33.986Z,7.252197
2022-11-16T19:31:59.243Z,7.28241
2022-11-16T19:35:24.510Z,7.312622
2022-11-16T19:38:49.848Z,7.28241
2022-11-16T19:42:14.960Z,7.232056
2022-11-16T19:45:40.216Z,7.16156
2022-11-16T19:49:05.470Z,6.990356
2022-11-16T19:52:30.707Z,6.940002
2022-11-16T19:55:55.972Z,6.869507
2022-11-16T19:59:21.178Z,6.758728
2022-11-16T20:02:46.396Z,6.668091
2022-11-16T20:06:11.599Z,6.698303
2022-11-16T20:09:36.818Z,6.738586
2022-11-16T20:13:02.878Z,6.738586
2022-11-16T20:16:28.075Z,6.728516
2022-11-16T20:19:53.331Z,6.768799
2022-11-16T20:23:18.595Z,6.809082
2022-11-16T20:26:43.821Z,6.839294
2022-11-16T20:30:09.824Z,6.849365
2022-11-16T20:33:34.619Z,6.849365
2022-11-16T20:36:59.498Z,6.809082
2022-11-16T20:40:24.753Z,6.849365
2022-11-16T20:43:50.007Z,6.758728
2022-11-16T20:47:15.334Z,6.708374
2022-11-16T20:50:40.524Z,6.738586
2022-11-16T20:54:05.781Z,6.809082
2022-11-16T20:57:30.997Z,6.869507
2022-11-16T21:00:56.267Z,6.839294
2022-11-16T21:04:21.558Z,6.839294
2022-11-16T21:07:46.657Z,6.839294
2022-11-16T21:11:11.899Z,6.809082
2022-11-16T21:14:37.167Z,6.799011
2022-11-16T21:18:02.381Z,6.758728
2022-11-16T21:21:27.727Z,6.758728
2022-11-16T21:24:52.818Z,6.869507
2022-11-16T21:28:21.388Z,6.919861
2022-11-16T21:31:43.214Z,6.889648
2022-11-16T21:35:08.453Z,6.919861
2022-11-16T21:38:33.738Z,6.980286
2022-11-16T21:41:58.905Z,7.050781
2022-11-16T21:45:24.101Z,7.070923
2022-11-16T21:48:49.331Z,7.091064
2022-11-16T21:52:14.492Z,7.050781
2022-11-16T21:55:39.824Z,7.060852
2022-11-16T21:59:04.903Z,7.151489
2022-11-16T22:02:30.094Z,7.232056
2022-11-16T22:05:55.354Z,7.242126
2022-11-16T22:09:20.547Z,7.312622
2022-11-16T22:12:45.755Z,7.373047
2022-11-16T22:16:10.930Z,7.28241
2022-11-16T22:19:36.132Z,7.201843
2022-11-16T22:23:01.348Z,7.211914
2022-11-16T22:26:26.541Z,7.252197
2022-11-16T22:29:51.873Z,7.342834
2022-11-16T22:33:16.963Z,7.342834
2022-11-16T22:36:42.151Z,7.322693
2022-11-16T22:40:07.357Z,7.393188
2022-11-16T22:43:33.066Z,7.433472
2022-11-16T22:46:57.922Z,7.393188
2022-11-16T22:50:22.998Z,7.373047
2022-11-16T22:53:48.199Z,7.322693
2022-11-16T22:57:13.417Z,7.322693
2022-11-16T23:00:41.911Z,7.312622
2022-11-16T23:04:03.880Z,7.342834
2022-11-16T23:07:29.067Z,7.403259
2022-11-16T23:10:54.238Z,7.433472
2022-11-16T23:14:19.435Z,7.393188
2022-11-16T23:17:44.621Z,7.423401
2022-11-16T23:21:09.945Z,7.453613
2022-11-16T23:24:35.045Z,7.453613
2022-11-16T23:28:00.241Z,7.453613
2022-11-16T23:31:25.442Z,7.433472
2022-11-16T23:34:50.643Z,7.463684
2022-11-16T23:38:15.950Z,7.554321
2022-11-16T23:41:41.020Z,7.604675
2022-11-16T23:45:06.232Z,7.53418
2022-11-16T23:48:31.411Z,7.493896
2022-11-16T23:51:56.607Z,7.524109
2022-11-16T23:55:21.829Z,7.453613
2022-11-16T23:58:47.034Z,7.483826
